sensor_id;sensor_type;location;lat;lon;timestamp;P1;durP1;ratioP1;P2;durP2;ratioP2
19280;SDS011;9774;52.034;5.342;2023-08-30T00:01:10;4.28;;;3.83;;
19280;SDS011;9774;52.034;5.342;2023-08-30T00:03:37;4.45;;;3.92;;
19280;SDS011;9774;52.034;5.342;2023-08-30T00:06:04;5.30;;;4.13;;
19280;SDS011;9774;52.034;5.342;2023-08-30T00:08:33;4.32;;;3.67;;
19280;SDS011;9774;52.034;5.342;2023-08-30T00:11:00;5.72;;;3.75;;
19280;SDS011;9774;52.034;5.342;2023-08-30T00:13:29;4.90;;;3.95;;
19280;SDS011;9774;52.034;5.342;2023-08-30T00:15:57;4.93;;;4.20;;
19280;SDS011;9774;52.034;5.342;2023-08-30T00:18:24;4.18;;;3.58;;
19280;SDS011;9774;52.034;5.342;2023-08-30T00:20:51;6.00;;;3.95;;
19280;SDS011;9774;52.034;5.342;2023-08-30T00:23:18;5.40;;;3.88;;
19280;SDS011;9774;52.034;5.342;2023-08-30T00:25:46;4.75;;;3.63;;
19280;SDS011;9774;52.034;5.342;2023-08-30T00:28:13;4.90;;;4.20;;
19280;SDS011;9774;52.034;5.342;2023-08-30T00:30:41;4.90;;;3.95;;
19280;SDS011;9774;52.034;5.342;2023-08-30T00:33:08;4.35;;;3.75;;
19280;SDS011;9774;52.034;5.342;2023-08-30T00:35:35;4.47;;;3.80;;
19280;SDS011;9774;52.034;5.342;2023-08-30T00:38:02;4.28;;;3.58;;
19280;SDS011;9774;52.034;5.342;2023-08-30T00:40:28;4.75;;;3.70;;
19280;SDS011;9774;52.034;5.342;2023-08-30T00:43:05;5.32;;;4.47;;
19280;SDS011;9774;52.034;5.342;2023-08-30T00:45:32;4.20;;;3.80;;
19280;SDS011;9774;52.034;5.342;2023-08-30T00:48:03;4.70;;;4.13;;
19280;SDS011;9774;52.034;5.342;2023-08-30T00:50:32;3.97;;;3.63;;
19280;SDS011;9774;52.034;5.342;2023-08-30T00:53:00;5.00;;;4.50;;
19280;SDS011;9774;52.034;5.342;2023-08-30T00:55:30;5.15;;;3.47;;
19280;SDS011;9774;52.034;5.342;2023-08-30T00:57:58;5.15;;;4.18;;
19280;SDS011;9774;52.034;5.342;2023-08-30T01:00:27;6.55;;;4.95;;
19280;SDS011;9774;52.034;5.342;2023-08-30T01:02:54;4.53;;;4.13;;
19280;SDS011;9774;52.034;5.342;2023-08-30T01:05:22;4.78;;;3.95;;
19280;SDS011;9774;52.034;5.342;2023-08-30T01:07:49;7.20;;;4.68;;
19280;SDS011;9774;52.034;5.342;2023-08-30T01:10:17;5.88;;;4.47;;
19280;SDS011;9774;52.034;5.342;2023-08-30T01:12:53;5.65;;;4.30;;
19280;SDS011;9774;52.034;5.342;2023-08-30T01:15:35;5.13;;;4.32;;
19280;SDS011;9774;52.034;5.342;2023-08-30T01:18:05;5.80;;;4.30;;
19280;SDS011;9774;52.034;5.342;2023-08-30T01:20:36;4.90;;;4.32;;
19280;SDS011;9774;52.034;5.342;2023-08-30T01:23:06;4.53;;;3.92;;
19280;SDS011;9774;52.034;5.342;2023-08-30T01:25:45;4.43;;;4.03;;
19280;SDS011;9774;52.034;5.342;2023-08-30T01:28:23;4.32;;;3.92;;
19280;SDS011;9774;52.034;5.342;2023-08-30T01:30:55;3.85;;;3.53;;
19280;SDS011;9774;52.034;5.342;2023-08-30T01:33:24;5.13;;;4.25;;
19280;SDS011;9774;52.034;5.342;2023-08-30T01:35:53;5.35;;;4.53;;
19280;SDS011;9774;52.034;5.342;2023-08-30T01:38:23;6.50;;;4.53;;
19280;SDS011;9774;52.034;5.342;2023-08-30T01:40:52;4.93;;;4.35;;
19280;SDS011;9774;52.034;5.342;2023-08-30T01:43:24;4.75;;;4.00;;
19280;SDS011;9774;52.034;5.342;2023-08-30T01:45:53;4.82;;;4.25;;
19280;SDS011;9774;52.034;5.342;2023-08-30T01:48:22;5.10;;;4.32;;
19280;SDS011;9774;52.034;5.342;2023-08-30T01:50:52;6.25;;;4.60;;
19280;SDS011;9774;52.034;5.342;2023-08-30T01:53:24;4.57;;;3.92;;
19280;SDS011;9774;52.034;5.342;2023-08-30T01:55:52;7.15;;;4.13;;
19280;SDS011;9774;52.034;5.342;2023-08-30T01:58:19;4.97;;;4.25;;
19280;SDS011;9774;52.034;5.342;2023-08-30T02:00:47;4.75;;;4.00;;
19280;SDS011;9774;52.034;5.342;2023-08-30T02:03:14;5.60;;;4.85;;
19280;SDS011;9774;52.034;5.342;2023-08-30T02:05:43;5.18;;;4.10;;
19280;SDS011;9774;52.034;5.342;2023-08-30T02:08:29;5.32;;;4.55;;
19280;SDS011;9774;52.034;5.342;2023-08-30T02:11:04;4.82;;;4.10;;
19280;SDS011;9774;52.034;5.342;2023-08-30T02:13:39;4.93;;;4.40;;
19280;SDS011;9774;52.034;5.342;2023-08-30T02:16:12;4.90;;;4.35;;
19280;SDS011;9774;52.034;5.342;2023-08-30T02:18:40;6.63;;;4.47;;
19280;SDS011;9774;52.034;5.342;2023-08-30T02:21:07;5.63;;;4.53;;
19280;SDS011;9774;52.034;5.342;2023-08-30T02:23:35;5.97;;;4.50;;
19280;SDS011;9774;52.034;5.342;2023-08-30T02:26:02;4.88;;;4.32;;
19280;SDS011;9774;52.034;5.342;2023-08-30T02:28:29;6.57;;;4.78;;
19280;SDS011;9774;52.034;5.342;2023-08-30T02:30:56;5.93;;;4.35;;
19280;SDS011;9774;52.034;5.342;2023-08-30T02:33:24;6.32;;;4.90;;
19280;SDS011;9774;52.034;5.342;2023-08-30T02:35:51;5.50;;;4.85;;
19280;SDS011;9774;52.034;5.342;2023-08-30T02:38:19;6.10;;;4.80;;
19280;SDS011;9774;52.034;5.342;2023-08-30T02:40:46;6.60;;;5.13;;
19280;SDS011;9774;52.034;5.342;2023-08-30T02:43:14;6.32;;;4.53;;
19280;SDS011;9774;52.034;5.342;2023-08-30T02:45:40;7.80;;;5.32;;
19280;SDS011;9774;52.034;5.342;2023-08-30T02:48:07;5.30;;;4.53;;
19280;SDS011;9774;52.034;5.342;2023-08-30T02:50:36;6.25;;;4.97;;
19280;SDS011;9774;52.034;5.342;2023-08-30T02:53:03;6.75;;;5.28;;
19280;SDS011;9774;52.034;5.342;2023-08-30T02:55:33;6.18;;;4.88;;
19280;SDS011;9774;52.034;5.342;2023-08-30T02:58:00;7.15;;;5.07;;
19280;SDS011;9774;52.034;5.342;2023-08-30T03:00:27;6.32;;;5.03;;
19280;SDS011;9774;52.034;5.342;2023-08-30T03:02:54;6.60;;;5.70;;
19280;SDS011;9774;52.034;5.342;2023-08-30T03:05:21;6.45;;;5.72;;
19280;SDS011;9774;52.034;5.342;2023-08-30T03:07:49;6.03;;;5.00;;
19280;SDS011;9774;52.034;5.342;2023-08-30T03:10:17;6.40;;;5.50;;
19280;SDS011;9774;52.034;5.342;2023-08-30T03:12:45;8.90;;;5.80;;
19280;SDS011;9774;52.034;5.342;2023-08-30T03:15:12;7.25;;;5.47;;
19280;SDS011;9774;52.034;5.342;2023-08-30T03:17:39;7.07;;;5.70;;
19280;SDS011;9774;52.034;5.342;2023-08-30T03:20:06;7.10;;;5.57;;
19280;SDS011;9774;52.034;5.342;2023-08-30T03:22:34;10.40;;;6.43;;
19280;SDS011;9774;52.034;5.342;2023-08-30T03:25:02;8.68;;;6.53;;
19280;SDS011;9774;52.034;5.342;2023-08-30T03:27:32;7.95;;;5.72;;
19280;SDS011;9774;52.034;5.342;2023-08-30T03:29:59;8.80;;;5.88;;
19280;SDS011;9774;52.034;5.342;2023-08-30T03:32:26;5.88;;;5.28;;
19280;SDS011;9774;52.034;5.342;2023-08-30T03:34:53;6.53;;;5.78;;
19280;SDS011;9774;52.034;5.342;2023-08-30T03:37:20;6.13;;;5.53;;
19280;SDS011;9774;52.034;5.342;2023-08-30T03:39:47;7.15;;;5.78;;
19280;SDS011;9774;52.034;5.342;2023-08-30T03:42:15;9.70;;;6.47;;
19280;SDS011;9774;52.034;5.342;2023-08-30T03:44:42;6.68;;;5.43;;
19280;SDS011;9774;52.034;5.342;2023-08-30T03:47:09;6.85;;;5.40;;
19280;SDS011;9774;52.034;5.342;2023-08-30T03:49:36;7.75;;;5.90;;
19280;SDS011;9774;52.034;5.342;2023-08-30T03:52:03;6.57;;;5.57;;
19280;SDS011;9774;52.034;5.342;2023-08-30T03:54:31;6.10;;;5.35;;
19280;SDS011;9774;52.034;5.342;2023-08-30T03:56:59;7.78;;;6.20;;
19280;SDS011;9774;52.034;5.342;2023-08-30T03:59:27;7.97;;;6.28;;
19280;SDS011;9774;52.034;5.342;2023-08-30T04:01:54;7.95;;;6.10;;
19280;SDS011;9774;52.034;5.342;2023-08-30T04:04:21;7.07;;;5.25;;
19280;SDS011;9774;52.034;5.342;2023-08-30T04:06:48;7.47;;;5.22;;
19280;SDS011;9774;52.034;5.342;2023-08-30T04:09:15;8.75;;;5.38;;
19280;SDS011;9774;52.034;5.342;2023-08-30T04:11:43;6.68;;;5.53;;
19280;SDS011;9774;52.034;5.342;2023-08-30T04:14:10;7.65;;;6.13;;
19280;SDS011;9774;52.034;5.342;2023-08-30T04:16:38;6.68;;;5.28;;
19280;SDS011;9774;52.034;5.342;2023-08-30T04:19:05;8.15;;;6.13;;
19280;SDS011;9774;52.034;5.342;2023-08-30T04:21:32;7.93;;;6.05;;
19280;SDS011;9774;52.034;5.342;2023-08-30T04:23:59;7.97;;;5.50;;
19280;SDS011;9774;52.034;5.342;2023-08-30T04:26:26;7.78;;;6.05;;
19280;SDS011;9774;52.034;5.342;2023-08-30T04:28:52;9.57;;;5.65;;
19280;SDS011;9774;52.034;5.342;2023-08-30T04:31:19;7.13;;;5.53;;
19280;SDS011;9774;52.034;5.342;2023-08-30T04:33:48;7.03;;;5.68;;
19280;SDS011;9774;52.034;5.342;2023-08-30T04:36:17;9.35;;;5.30;;
19280;SDS011;9774;52.034;5.342;2023-08-30T04:38:44;7.78;;;6.10;;
19280;SDS011;9774;52.034;5.342;2023-08-30T04:41:11;8.40;;;6.32;;
19280;SDS011;9774;52.034;5.342;2023-08-30T04:43:38;7.68;;;5.65;;
19280;SDS011;9774;52.034;5.342;2023-08-30T04:46:05;8.68;;;5.57;;
19280;SDS011;9774;52.034;5.342;2023-08-30T04:48:33;6.60;;;5.38;;
19280;SDS011;9774;52.034;5.342;2023-08-30T04:51:03;7.65;;;5.32;;
19280;SDS011;9774;52.034;5.342;2023-08-30T04:53:30;6.88;;;5.47;;
19280;SDS011;9774;52.034;5.342;2023-08-30T04:55:58;7.80;;;5.75;;
19280;SDS011;9774;52.034;5.342;2023-08-30T04:58:25;8.77;;;6.53;;
19280;SDS011;9774;52.034;5.342;2023-08-30T05:00:52;6.95;;;5.80;;
19280;SDS011;9774;52.034;5.342;2023-08-30T05:03:22;7.38;;;5.60;;
19280;SDS011;9774;52.034;5.342;2023-08-30T05:05:49;6.68;;;4.93;;
19280;SDS011;9774;52.034;5.342;2023-08-30T05:08:17;8.18;;;5.43;;
19280;SDS011;9774;52.034;5.342;2023-08-30T05:10:44;6.35;;;5.28;;
19280;SDS011;9774;52.034;5.342;2023-08-30T05:13:11;7.18;;;5.82;;
19280;SDS011;9774;52.034;5.342;2023-08-30T05:15:42;9.00;;;5.45;;
19280;SDS011;9774;52.034;5.342;2023-08-30T05:18:09;6.70;;;5.38;;
19280;SDS011;9774;52.034;5.342;2023-08-30T05:20:36;7.07;;;6.20;;
19280;SDS011;9774;52.034;5.342;2023-08-30T05:23:03;8.07;;;5.40;;
19280;SDS011;9774;52.034;5.342;2023-08-30T05:25:31;11.52;;;6.18;;
19280;SDS011;9774;52.034;5.342;2023-08-30T05:27:58;7.05;;;5.75;;
19280;SDS011;9774;52.034;5.342;2023-08-30T05:30:25;8.57;;;5.78;;
19280;SDS011;9774;52.034;5.342;2023-08-30T05:32:52;7.20;;;5.32;;
19280;SDS011;9774;52.034;5.342;2023-08-30T05:35:19;8.60;;;5.80;;
19280;SDS011;9774;52.034;5.342;2023-08-30T05:37:46;7.85;;;5.28;;
19280;SDS011;9774;52.034;5.342;2023-08-30T05:40:13;7.13;;;5.70;;
19280;SDS011;9774;52.034;5.342;2023-08-30T05:42:43;7.45;;;5.95;;
19280;SDS011;9774;52.034;5.342;2023-08-30T05:45:10;6.97;;;5.03;;
19280;SDS011;9774;52.034;5.342;2023-08-30T05:47:37;8.32;;;5.53;;
19280;SDS011;9774;52.034;5.342;2023-08-30T05:50:05;8.13;;;5.72;;
19280;SDS011;9774;52.034;5.342;2023-08-30T05:52:32;8.13;;;5.75;;
19280;SDS011;9774;52.034;5.342;2023-08-30T05:55:00;7.03;;;5.18;;
19280;SDS011;9774;52.034;5.342;2023-08-30T05:57:27;6.25;;;5.38;;
19280;SDS011;9774;52.034;5.342;2023-08-30T05:59:59;8.05;;;6.20;;
19280;SDS011;9774;52.034;5.342;2023-08-30T06:02:27;13.68;;;6.25;;
19280;SDS011;9774;52.034;5.342;2023-08-30T06:04:54;7.00;;;5.45;;
19280;SDS011;9774;52.034;5.342;2023-08-30T06:07:21;9.85;;;5.95;;
19280;SDS011;9774;52.034;5.342;2023-08-30T06:09:48;7.57;;;5.93;;
19280;SDS011;9774;52.034;5.342;2023-08-30T06:12:15;8.52;;;5.43;;
19280;SDS011;9774;52.034;5.342;2023-08-30T06:14:42;6.45;;;5.22;;
19280;SDS011;9774;52.034;5.342;2023-08-30T06:17:16;7.72;;;5.55;;
19280;SDS011;9774;52.034;5.342;2023-08-30T06:19:44;7.68;;;5.28;;
19280;SDS011;9774;52.034;5.342;2023-08-30T06:22:11;6.30;;;5.18;;
19280;SDS011;9774;52.034;5.342;2023-08-30T06:24:38;8.02;;;5.43;;
19280;SDS011;9774;52.034;5.342;2023-08-30T06:27:06;7.25;;;5.68;;
19280;SDS011;9774;52.034;5.342;2023-08-30T06:29:33;6.28;;;5.43;;
19280;SDS011;9774;52.034;5.342;2023-08-30T06:32:00;6.93;;;5.57;;
19280;SDS011;9774;52.034;5.342;2023-08-30T06:34:28;7.28;;;5.43;;
19280;SDS011;9774;52.034;5.342;2023-08-30T06:36:55;8.18;;;5.60;;
19280;SDS011;9774;52.034;5.342;2023-08-30T06:39:22;7.78;;;5.45;;
19280;SDS011;9774;52.034;5.342;2023-08-30T06:41:49;5.97;;;4.93;;
19280;SDS011;9774;52.034;5.342;2023-08-30T06:44:16;6.30;;;5.35;;
19280;SDS011;9774;52.034;5.342;2023-08-30T06:46:43;6.95;;;4.75;;
19280;SDS011;9774;52.034;5.342;2023-08-30T06:49:10;6.00;;;4.60;;
19280;SDS011;9774;52.034;5.342;2023-08-30T06:51:38;5.40;;;4.85;;
19280;SDS011;9774;52.034;5.342;2023-08-30T06:54:05;6.82;;;5.15;;
19280;SDS011;9774;52.034;5.342;2023-08-30T06:56:32;5.90;;;4.53;;
19280;SDS011;9774;52.034;5.342;2023-08-30T06:59:00;7.78;;;5.05;;
19280;SDS011;9774;52.034;5.342;2023-08-30T07:01:28;7.50;;;5.18;;
19280;SDS011;9774;52.034;5.342;2023-08-30T07:03:55;7.50;;;5.32;;
19280;SDS011;9774;52.034;5.342;2023-08-30T07:06:22;7.70;;;5.35;;
19280;SDS011;9774;52.034;5.342;2023-08-30T07:08:50;5.72;;;4.47;;
19280;SDS011;9774;52.034;5.342;2023-08-30T07:11:17;7.55;;;4.68;;
19280;SDS011;9774;52.034;5.342;2023-08-30T07:13:44;5.72;;;5.13;;
19280;SDS011;9774;52.034;5.342;2023-08-30T07:16:11;6.10;;;4.18;;
19280;SDS011;9774;52.034;5.342;2023-08-30T07:18:38;6.15;;;4.35;;
19280;SDS011;9774;52.034;5.342;2023-08-30T07:21:05;5.90;;;4.28;;
19280;SDS011;9774;52.034;5.342;2023-08-30T07:23:32;5.85;;;4.50;;
19280;SDS011;9774;52.034;5.342;2023-08-30T07:26:01;5.80;;;4.63;;
19280;SDS011;9774;52.034;5.342;2023-08-30T07:28:28;5.75;;;4.47;;
19280;SDS011;9774;52.034;5.342;2023-08-30T07:31:01;7.30;;;4.57;;
19280;SDS011;9774;52.034;5.342;2023-08-30T07:33:29;4.95;;;4.45;;
19280;SDS011;9774;52.034;5.342;2023-08-30T07:35:56;4.45;;;3.95;;
19280;SDS011;9774;52.034;5.342;2023-08-30T07:38:23;5.07;;;4.20;;
19280;SDS011;9774;52.034;5.342;2023-08-30T07:40:50;6.68;;;4.57;;
19280;SDS011;9774;52.034;5.342;2023-08-30T07:43:19;6.10;;;4.80;;
19280;SDS011;9774;52.034;5.342;2023-08-30T07:45:47;6.60;;;4.47;;
19280;SDS011;9774;52.034;5.342;2023-08-30T07:48:14;5.57;;;4.32;;
19280;SDS011;9774;52.034;5.342;2023-08-30T07:50:41;5.10;;;3.88;;
19280;SDS011;9774;52.034;5.342;2023-08-30T07:53:08;6.78;;;4.75;;
19280;SDS011;9774;52.034;5.342;2023-08-30T07:55:35;5.22;;;4.18;;
19280;SDS011;9774;52.034;5.342;2023-08-30T07:58:03;5.35;;;3.70;;
19280;SDS011;9774;52.034;5.342;2023-08-30T08:00:32;4.40;;;3.33;;
19280;SDS011;9774;52.034;5.342;2023-08-30T08:02:59;4.47;;;3.60;;
19280;SDS011;9774;52.034;5.342;2023-08-30T08:05:26;4.80;;;3.38;;
19280;SDS011;9774;52.034;5.342;2023-08-30T08:07:53;6.57;;;3.38;;
19280;SDS011;9774;52.034;5.342;2023-08-30T08:10:20;4.35;;;3.50;;
19280;SDS011;9774;52.034;5.342;2023-08-30T08:12:47;4.95;;;3.53;;
19280;SDS011;9774;52.034;5.342;2023-08-30T08:15:14;5.97;;;3.30;;
19280;SDS011;9774;52.034;5.342;2023-08-30T08:17:42;5.40;;;2.58;;
19280;SDS011;9774;52.034;5.342;2023-08-30T08:20:10;4.88;;;3.20;;
19280;SDS011;9774;52.034;5.342;2023-08-30T08:22:39;3.45;;;3.08;;
19280;SDS011;9774;52.034;5.342;2023-08-30T08:25:06;4.75;;;3.13;;
19280;SDS011;9774;52.034;5.342;2023-08-30T08:27:35;6.70;;;2.80;;
19280;SDS011;9774;52.034;5.342;2023-08-30T08:30:02;3.13;;;2.50;;
19280;SDS011;9774;52.034;5.342;2023-08-30T08:32:30;3.65;;;2.95;;
19280;SDS011;9774;52.034;5.342;2023-08-30T08:34:59;3.75;;;2.55;;
19280;SDS011;9774;52.034;5.342;2023-08-30T08:37:28;3.92;;;2.95;;
19280;SDS011;9774;52.034;5.342;2023-08-30T08:39:57;4.05;;;2.85;;
19280;SDS011;9774;52.034;5.342;2023-08-30T08:42:24;4.00;;;2.95;;
19280;SDS011;9774;52.034;5.342;2023-08-30T08:44:53;4.03;;;3.17;;
19280;SDS011;9774;52.034;5.342;2023-08-30T08:47:22;3.55;;;2.88;;
19280;SDS011;9774;52.034;5.342;2023-08-30T08:49:50;3.20;;;2.72;;
19280;SDS011;9774;52.034;5.342;2023-08-30T08:52:18;3.60;;;2.95;;
19280;SDS011;9774;52.034;5.342;2023-08-30T08:54:46;3.05;;;2.63;;
19280;SDS011;9774;52.034;5.342;2023-08-30T08:57:14;4.30;;;3.10;;
19280;SDS011;9774;52.034;5.342;2023-08-30T08:59:41;4.72;;;3.67;;
19280;SDS011;9774;52.034;5.342;2023-08-30T09:02:10;3.30;;;2.53;;
19280;SDS011;9774;52.034;5.342;2023-08-30T09:04:40;3.60;;;3.20;;
19280;SDS011;9774;52.034;5.342;2023-08-30T09:07:07;3.17;;;2.72;;
19280;SDS011;9774;52.034;5.342;2023-08-30T09:09:36;3.92;;;2.88;;
19280;SDS011;9774;52.034;5.342;2023-08-30T09:12:03;4.38;;;3.10;;
19280;SDS011;9774;52.034;5.342;2023-08-30T09:14:30;3.80;;;3.40;;
19280;SDS011;9774;52.034;5.342;2023-08-30T09:16:58;3.15;;;2.85;;
19280;SDS011;9774;52.034;5.342;2023-08-30T09:19:28;3.58;;;2.88;;
19280;SDS011;9774;52.034;5.342;2023-08-30T09:21:56;3.90;;;3.42;;
19280;SDS011;9774;52.034;5.342;2023-08-30T09:24:25;4.57;;;3.17;;
19280;SDS011;9774;52.034;5.342;2023-08-30T09:27:05;4.13;;;3.03;;
19280;SDS011;9774;52.034;5.342;2023-08-30T09:29:32;3.40;;;2.92;;
19280;SDS011;9774;52.034;5.342;2023-08-30T09:32:00;3.25;;;2.95;;
19280;SDS011;9774;52.034;5.342;2023-08-30T09:34:28;3.42;;;3.00;;
19280;SDS011;9774;52.034;5.342;2023-08-30T09:36:55;3.80;;;3.10;;
19280;SDS011;9774;52.034;5.342;2023-08-30T09:39:24;2.95;;;2.65;;
19280;SDS011;9774;52.034;5.342;2023-08-30T09:41:53;3.47;;;3.17;;
19280;SDS011;9774;52.034;5.342;2023-08-30T09:44:21;4.65;;;3.33;;
19280;SDS011;9774;52.034;5.342;2023-08-30T09:46:50;3.60;;;3.30;;
19280;SDS011;9774;52.034;5.342;2023-08-30T09:49:19;3.38;;;2.92;;
19280;SDS011;9774;52.034;5.342;2023-08-30T09:51:48;3.72;;;3.40;;
19280;SDS011;9774;52.034;5.342;2023-08-30T09:54:17;3.97;;;3.63;;
19280;SDS011;9774;52.034;5.342;2023-08-30T09:56:48;4.65;;;4.25;;
19280;SDS011;9774;52.034;5.342;2023-08-30T09:59:19;4.63;;;4.00;;
19280;SDS011;9774;52.034;5.342;2023-08-30T10:01:47;4.38;;;3.60;;
19280;SDS011;9774;52.034;5.342;2023-08-30T10:04:14;5.05;;;4.00;;
19280;SDS011;9774;52.034;5.342;2023-08-30T10:06:41;4.20;;;3.80;;
19280;SDS011;9774;52.034;5.342;2023-08-30T10:09:11;4.57;;;4.18;;
19280;SDS011;9774;52.034;5.342;2023-08-30T10:11:39;4.65;;;4.25;;
19280;SDS011;9774;52.034;5.342;2023-08-30T10:14:06;4.80;;;4.30;;
19280;SDS011;9774;52.034;5.342;2023-08-30T10:16:37;5.28;;;4.82;;
19280;SDS011;9774;52.034;5.342;2023-08-30T10:19:10;4.70;;;4.15;;
19280;SDS011;9774;52.034;5.342;2023-08-30T10:21:40;5.18;;;4.68;;
19280;SDS011;9774;52.034;5.342;2023-08-30T10:24:11;4.30;;;3.83;;
19280;SDS011;9774;52.034;5.342;2023-08-30T10:26:42;3.20;;;2.90;;
19280;SDS011;9774;52.034;5.342;2023-08-30T10:29:13;3.88;;;3.55;;
19280;SDS011;9774;52.034;5.342;2023-08-30T10:31:44;3.72;;;3.42;;
19280;SDS011;9774;52.034;5.342;2023-08-30T10:34:13;5.10;;;4.60;;
19280;SDS011;9774;52.034;5.342;2023-08-30T10:36:41;5.35;;;3.53;;
19280;SDS011;9774;52.034;5.342;2023-08-30T10:39:11;3.97;;;3.67;;
19280;SDS011;9774;52.034;5.342;2023-08-30T10:41:53;4.30;;;3.90;;
19280;SDS011;9774;52.034;5.342;2023-08-30T10:44:21;3.40;;;3.10;;
19280;SDS011;9774;52.034;5.342;2023-08-30T10:46:53;4.88;;;3.35;;
19280;SDS011;9774;52.034;5.342;2023-08-30T10:49:21;3.85;;;3.55;;
19280;SDS011;9774;52.034;5.342;2023-08-30T10:51:57;3.05;;;2.80;;
19280;SDS011;9774;52.034;5.342;2023-08-30T10:54:36;3.67;;;3.03;;
19280;SDS011;9774;52.034;5.342;2023-08-30T10:57:03;3.28;;;3.00;;
19280;SDS011;9774;52.034;5.342;2023-08-30T10:59:31;3.97;;;3.22;;
19280;SDS011;9774;52.034;5.342;2023-08-30T11:02:00;4.25;;;2.20;;
19280;SDS011;9774;52.034;5.342;2023-08-30T11:04:28;4.28;;;2.20;;
19280;SDS011;9774;52.034;5.342;2023-08-30T11:06:55;3.08;;;2.10;;
19280;SDS011;9774;52.034;5.342;2023-08-30T11:09:23;3.30;;;2.22;;
19280;SDS011;9774;52.034;5.342;2023-08-30T11:11:51;3.78;;;2.17;;
19280;SDS011;9774;52.034;5.342;2023-08-30T11:14:18;3.97;;;1.85;;
19280;SDS011;9774;52.034;5.342;2023-08-30T11:16:45;5.07;;;2.20;;
19280;SDS011;9774;52.034;5.342;2023-08-30T11:19:14;3.97;;;2.05;;
19280;SDS011;9774;52.034;5.342;2023-08-30T11:21:43;2.53;;;1.58;;
19280;SDS011;9774;52.034;5.342;2023-08-30T11:24:11;6.85;;;1.95;;
19280;SDS011;9774;52.034;5.342;2023-08-30T11:26:38;1.55;;;1.35;;
19280;SDS011;9774;52.034;5.342;2023-08-30T11:29:05;7.60;;;2.15;;
19280;SDS011;9774;52.034;5.342;2023-08-30T11:31:33;4.97;;;1.90;;
19280;SDS011;9774;52.034;5.342;2023-08-30T11:34:01;3.63;;;2.08;;
19280;SDS011;9774;52.034;5.342;2023-08-30T11:36:31;2.75;;;1.58;;
19280;SDS011;9774;52.034;5.342;2023-08-30T11:39:01;3.78;;;1.98;;
19280;SDS011;9774;52.034;5.342;2023-08-30T11:41:29;4.93;;;1.60;;
19280;SDS011;9774;52.034;5.342;2023-08-30T11:43:58;4.28;;;1.48;;
19280;SDS011;9774;52.034;5.342;2023-08-30T11:46:25;2.92;;;1.30;;
19280;SDS011;9774;52.034;5.342;2023-08-30T11:48:52;2.47;;;1.50;;
19280;SDS011;9774;52.034;5.342;2023-08-30T11:51:19;3.78;;;1.45;;
19280;SDS011;9774;52.034;5.342;2023-08-30T11:53:48;4.13;;;1.50;;
19280;SDS011;9774;52.034;5.342;2023-08-30T11:56:15;3.05;;;1.45;;
19280;SDS011;9774;52.034;5.342;2023-08-30T11:58:44;5.05;;;1.60;;
19280;SDS011;9774;52.034;5.342;2023-08-30T12:01:11;2.25;;;1.38;;
19280;SDS011;9774;52.034;5.342;2023-08-30T12:03:39;2.35;;;1.25;;
19280;SDS011;9774;52.034;5.342;2023-08-30T12:06:09;1.75;;;1.60;;
19280;SDS011;9774;52.034;5.342;2023-08-30T12:08:37;4.60;;;2.03;;
19280;SDS011;9774;52.034;5.342;2023-08-30T12:11:05;2.05;;;1.48;;
19280;SDS011;9774;52.034;5.342;2023-08-30T12:13:44;3.35;;;1.23;;
19280;SDS011;9774;52.034;5.342;2023-08-30T12:16:14;3.95;;;1.35;;
19280;SDS011;9774;52.034;5.342;2023-08-30T12:18:43;2.28;;;1.40;;
19280;SDS011;9774;52.034;5.342;2023-08-30T12:21:10;2.05;;;1.02;;
19280;SDS011;9774;52.034;5.342;2023-08-30T12:23:40;3.08;;;1.63;;
19280;SDS011;9774;52.034;5.342;2023-08-30T12:26:09;3.15;;;1.83;;
19280;SDS011;9774;52.034;5.342;2023-08-30T12:28:38;2.63;;;1.90;;
19280;SDS011;9774;52.034;5.342;2023-08-30T12:31:09;5.25;;;1.35;;
19280;SDS011;9774;52.034;5.342;2023-08-30T12:33:36;6.22;;;1.65;;
19280;SDS011;9774;52.034;5.342;2023-08-30T12:36:05;2.85;;;1.30;;
19280;SDS011;9774;52.034;5.342;2023-08-30T12:38:32;7.07;;;1.65;;
19280;SDS011;9774;52.034;5.342;2023-08-30T12:40:59;3.78;;;1.23;;
19280;SDS011;9774;52.034;5.342;2023-08-30T12:43:28;3.45;;;1.20;;
19280;SDS011;9774;52.034;5.342;2023-08-30T12:45:55;6.22;;;1.63;;
19280;SDS011;9774;52.034;5.342;2023-08-30T12:48:22;1.58;;;1.08;;
19280;SDS011;9774;52.034;5.342;2023-08-30T12:50:49;3.90;;;1.20;;
19280;SDS011;9774;52.034;5.342;2023-08-30T12:53:16;1.58;;;0.90;;
19280;SDS011;9774;52.034;5.342;2023-08-30T12:55:43;2.88;;;1.25;;
19280;SDS011;9774;52.034;5.342;2023-08-30T12:58:10;2.45;;;1.10;;
19280;SDS011;9774;52.034;5.342;2023-08-30T13:00:40;2.35;;;1.40;;
19280;SDS011;9774;52.034;5.342;2023-08-30T13:03:07;2.20;;;1.00;;
19280;SDS011;9774;52.034;5.342;2023-08-30T13:05:34;2.90;;;1.27;;
19280;SDS011;9774;52.034;5.342;2023-08-30T13:08:02;4.97;;;1.10;;
19280;SDS011;9774;52.034;5.342;2023-08-30T13:10:29;2.67;;;1.13;;
19280;SDS011;9774;52.034;5.342;2023-08-30T13:12:56;2.17;;;0.98;;
19280;SDS011;9774;52.034;5.342;2023-08-30T13:15:23;2.58;;;1.10;;
19280;SDS011;9774;52.034;5.342;2023-08-30T13:17:52;2.95;;;1.17;;
19280;SDS011;9774;52.034;5.342;2023-08-30T13:20:19;3.15;;;1.27;;
19280;SDS011;9774;52.034;5.342;2023-08-30T13:22:46;2.20;;;0.90;;
19280;SDS011;9774;52.034;5.342;2023-08-30T13:25:13;1.95;;;1.10;;
19280;SDS011;9774;52.034;5.342;2023-08-30T13:27:40;3.15;;;0.98;;
19280;SDS011;9774;52.034;5.342;2023-08-30T13:30:07;3.97;;;1.67;;
19280;SDS011;9774;52.034;5.342;2023-08-30T13:32:34;3.78;;;1.15;;
19280;SDS011;9774;52.034;5.342;2023-08-30T13:35:02;2.13;;;1.17;;
19280;SDS011;9774;52.034;5.342;2023-08-30T13:37:30;2.42;;;1.00;;
19280;SDS011;9774;52.034;5.342;2023-08-30T13:39:57;1.58;;;0.73;;
19280;SDS011;9774;52.034;5.342;2023-08-30T13:42:24;3.63;;;0.85;;
19280;SDS011;9774;52.034;5.342;2023-08-30T13:44:51;1.67;;;0.90;;
19280;SDS011;9774;52.034;5.342;2023-08-30T13:47:19;3.28;;;1.23;;
19280;SDS011;9774;52.034;5.342;2023-08-30T13:49:46;2.03;;;1.08;;
19280;SDS011;9774;52.034;5.342;2023-08-30T13:52:14;3.35;;;1.20;;
19280;SDS011;9774;52.034;5.342;2023-08-30T13:54:41;1.92;;;1.00;;
19280;SDS011;9774;52.034;5.342;2023-08-30T13:57:08;2.20;;;1.23;;
19280;SDS011;9774;52.034;5.342;2023-08-30T13:59:36;2.55;;;1.10;;
19280;SDS011;9774;52.034;5.342;2023-08-30T14:02:03;2.25;;;0.90;;
19280;SDS011;9774;52.034;5.342;2023-08-30T14:04:30;5.68;;;1.30;;
19280;SDS011;9774;52.034;5.342;2023-08-30T14:06:59;1.73;;;1.00;;
19280;SDS011;9774;52.034;5.342;2023-08-30T14:09:27;2.55;;;0.95;;
19280;SDS011;9774;52.034;5.342;2023-08-30T14:11:54;2.58;;;1.35;;
19280;SDS011;9774;52.034;5.342;2023-08-30T14:14:21;0.57;;;0.40;;
19280;SDS011;9774;52.034;5.342;2023-08-30T14:16:48;2.45;;;0.98;;
19280;SDS011;9774;52.034;5.342;2023-08-30T14:19:15;1.25;;;0.85;;
19280;SDS011;9774;52.034;5.342;2023-08-30T14:21:43;1.98;;;0.77;;
19280;SDS011;9774;52.034;5.342;2023-08-30T14:24:10;2.13;;;0.80;;
19280;SDS011;9774;52.034;5.342;2023-08-30T14:26:38;3.85;;;1.30;;
19280;SDS011;9774;52.034;5.342;2023-08-30T14:29:05;2.58;;;0.90;;
19280;SDS011;9774;52.034;5.342;2023-08-30T14:31:32;2.08;;;0.82;;
19280;SDS011;9774;52.034;5.342;2023-08-30T14:33:59;2.58;;;0.80;;
19280;SDS011;9774;52.034;5.342;2023-08-30T14:36:26;2.60;;;0.90;;
19280;SDS011;9774;52.034;5.342;2023-08-30T14:38:53;2.03;;;0.90;;
19280;SDS011;9774;52.034;5.342;2023-08-30T14:41:20;3.13;;;1.00;;
19280;SDS011;9774;52.034;5.342;2023-08-30T14:43:49;1.33;;;0.98;;
19280;SDS011;9774;52.034;5.342;2023-08-30T14:46:16;2.55;;;0.80;;
19280;SDS011;9774;52.034;5.342;2023-08-30T14:48:44;2.80;;;1.17;;
19280;SDS011;9774;52.034;5.342;2023-08-30T14:51:11;2.22;;;1.08;;
19280;SDS011;9774;52.034;5.342;2023-08-30T14:53:38;2.03;;;0.98;;
19280;SDS011;9774;52.034;5.342;2023-08-30T14:56:05;3.08;;;1.08;;
19280;SDS011;9774;52.034;5.342;2023-08-30T14:58:33;4.55;;;0.95;;
19280;SDS011;9774;52.034;5.342;2023-08-30T15:01:02;1.92;;;0.95;;
19280;SDS011;9774;52.034;5.342;2023-08-30T15:03:29;2.33;;;0.93;;
19280;SDS011;9774;52.034;5.342;2023-08-30T15:05:57;3.47;;;0.80;;